Time;durP1;ratioP1;P1;durP2;ratioP2;P2;SDS_P1;SDS_P2;PMS_P1;PMS_P2;Temp;Humidity;BMP_temperature;BMP_pressure;BME280_temperature;BME280_humidity;BME280_pressure;Samples;Min_cycle;Max_cycle;Signal;HPM_P1;HPM_P2
2024/03/28 00:01:59;;;;;;;1.17;0.40;;;;;;;6.15;100.00;96793.81;5008935;28;20515;-69
2024/03/28 00:04:24;;;;;;;1.25;0.40;;;;;;;6.08;100.00;96806.63;5018681;28;20053;-69
2024/03/28 00:06:50;;;;;;;0.50;0.40;;;;;;;6.03;100.00;96813.97;5058437;28;20029;-69
2024/03/28 00:09:19;;;;;;;2.30;0.40;;;;;;;5.95;100.00;96811.41;5038850;28;20033;-69
2024/03/28 00:11:44;;;;;;;0.70;0.50;;;;;;;5.93;100.00;96806.22;5009201;28;20033;-69
2024/03/28 00:14:10;;;;;;;0.65;0.55;;;;;;;5.86;100.00;96805.22;5029822;28;20037;-69
2024/03/28 00:16:35;;;;;;;0.82;0.30;;;;;;;5.81;100.00;96803.53;5060688;28;20066;-69
2024/03/28 00:19:01;;;;;;;0.73;0.38;;;;;;;5.75;100.00;96815.97;5058992;28;20067;-69
2024/03/28 00:21:26;;;;;;;2.05;0.40;;;;;;;5.68;100.00;96807.50;5041765;28;20043;-69
2024/03/28 00:23:52;;;;;;;0.47;0.30;;;;;;;5.68;100.00;96804.75;5057948;28;20037;-69
2024/03/28 00:26:17;;;;;;;1.25;0.30;;;;;;;5.56;100.00;96803.66;5041505;28;20032;-69
2024/03/28 00:28:43;;;;;;;1.02;0.47;;;;;;;5.50;100.00;96799.56;5025884;28;20032;-69
2024/03/28 00:31:09;;;;;;;1.05;0.30;;;;;;;5.46;100.00;96809.69;5040872;28;20559;-69
2024/03/28 00:33:35;;;;;;;0.50;0.50;;;;;;;5.38;100.00;96807.88;5046440;28;20040;-69
2024/03/28 00:36:01;;;;;;;1.25;0.40;;;;;;;5.32;100.00;96810.09;5008721;28;20119;-69
2024/03/28 00:38:26;;;;;;;0.73;0.30;;;;;;;5.25;100.00;96809.88;5024454;28;20032;-69
2024/03/28 00:40:53;;;;;;;0.77;0.40;;;;;;;5.23;100.00;96806.66;5024733;28;20115;-69
2024/03/28 00:43:18;;;;;;;4.43;0.50;;;;;;;5.20;100.00;96812.06;5025091;28;20036;-69
2024/03/28 00:45:44;;;;;;;0.43;0.40;;;;;;;5.06;100.00;96809.69;5024822;28;20503;-70
2024/03/28 00:48:10;;;;;;;0.93;0.40;;;;;;;5.01;100.00;96805.22;5024687;28;20029;-69
2024/03/28 00:50:35;;;;;;;0.52;0.40;;;;;;;4.94;100.00;96794.03;5008193;28;20619;-69
2024/03/28 00:53:01;;;;;;;0.70;0.40;;;;;;;4.87;100.00;96794.59;5024548;28;20033;-69
2024/03/28 00:55:27;;;;;;;1.60;0.40;;;;;;;4.84;100.00;96802.75;5041214;28;20052;-69
2024/03/28 00:57:52;;;;;;;0.60;0.40;;;;;;;4.80;100.00;96816.41;5008261;28;20404;-69
2024/03/28 01:00:19;;;;;;;6.88;0.50;;;;;;;4.79;100.00;96816.72;5025048;28;20040;-69
2024/03/28 01:02:44;;;;;;;0.57;0.40;;;;;;;4.76;100.00;96814.69;5036612;28;20080;-69
2024/03/28 01:05:09;;;;;;;0.43;0.30;;;;;;;4.70;100.00;96817.66;5040961;28;20661;-69
2024/03/28 01:07:35;;;;;;;2.25;0.60;;;;;;;4.68;100.00;96819.16;5008247;28;20033;-69
2024/03/28 01:10:01;;;;;;;0.98;0.40;;;;;;;4.65;100.00;96815.16;5045467;28;20485;-69
2024/03/28 01:12:26;;;;;;;0.63;0.40;;;;;;;4.65;100.00;96826.16;5028447;28;20040;-69
2024/03/28 01:14:52;;;;;;;1.20;0.40;;;;;;;4.64;100.00;96841.03;5008140;28;20032;-69
2024/03/28 01:17:17;;;;;;;0.95;0.40;;;;;;;4.62;100.00;96848.81;5046121;28;20045;-69
2024/03/28 01:19:42;;;;;;;0.60;0.40;;;;;;;4.62;100.00;96837.03;5041106;28;20029;-69
2024/03/28 01:22:08;;;;;;;1.55;0.30;;;;;;;4.58;100.00;96820.44;5040945;28;20086;-69
2024/03/28 01:24:33;;;;;;;1.20;0.40;;;;;;;4.60;100.00;96823.66;5040735;28;20043;-69
2024/03/28 01:26:59;;;;;;;0.73;0.40;;;;;;;4.60;100.00;96822.84;5049138;28;20039;-69
2024/03/28 01:29:24;;;;;;;0.85;0.40;;;;;;;4.56;100.00;96814.47;5054009;28;20660;-69
2024/03/28 01:31:50;;;;;;;0.60;0.50;;;;;;;4.55;100.00;96823.88;5019840;28;20044;-69
2024/03/28 01:34:15;;;;;;;1.83;0.30;;;;;;;4.55;100.00;96832.13;5024348;28;20036;-69
2024/03/28 01:36:41;;;;;;;0.40;0.40;;;;;;;4.59;100.00;96838.50;5038340;28;20040;-69
2024/03/28 01:39:07;;;;;;;2.88;0.57;;;;;;;4.56;100.00;96849.41;5022389;28;20553;-69
2024/03/28 01:41:33;;;;;;;1.33;0.50;;;;;;;4.59;100.00;96857.75;5054530;28;20087;-69
2024/03/28 01:43:59;;;;;;;1.25;0.52;;;;;;;4.55;100.00;96862.34;5027410;28;20060;-69
2024/03/28 01:46:24;;;;;;;1.23;0.60;;;;;;;4.59;100.00;96866.00;5044401;28;20024;-69
2024/03/28 01:48:50;;;;;;;0.47;0.40;;;;;;;4.55;100.00;96878.84;5044633;28;20090;-69
2024/03/28 01:51:16;;;;;;;0.68;0.32;;;;;;;4.56;100.00;96885.91;5041172;28;20041;-69
2024/03/28 01:53:41;;;;;;;0.75;0.32;;;;;;;4.52;100.00;96890.50;5020859;28;20386;-69
2024/03/28 01:56:07;;;;;;;2.30;0.47;;;;;;;4.55;100.00;96891.78;5011424;28;20044;-69
2024/03/28 01:58:32;;;;;;;3.67;0.60;;;;;;;4.56;100.00;96904.38;5028030;28;20480;-69
2024/03/28 02:00:58;;;;;;;1.00;0.40;;;;;;;4.57;100.00;96916.94;5043897;28;20054;-69
2024/03/28 02:03:24;;;;;;;1.67;0.40;;;;;;;4.56;100.00;96929.09;5057243;28;20032;-69
2024/03/28 02:05:49;;;;;;;0.50;0.43;;;;;;;4.57;100.00;96937.00;5044139;28;20094;-69
2024/03/28 02:08:15;;;;;;;1.73;0.50;;;;;;;4.61;100.00;96946.16;5027378;28;20037;-69
2024/03/28 02:10:40;;;;;;;0.90;0.30;;;;;;;4.61;100.00;96954.41;5040651;28;20037;-69
2024/03/28 02:13:06;;;;;;;2.45;0.50;;;;;;;4.61;100.00;96957.16;5076651;28;20091;-69
2024/03/28 02:15:31;;;;;;;1.48;0.50;;;;;;;4.62;100.00;96958.75;5040387;28;20041;-69
2024/03/28 02:17:57;;;;;;;1.40;0.50;;;;;;;4.62;100.00;96953.25;5028783;28;20059;-69
2024/03/28 02:20:22;;;;;;;1.15;0.50;;;;;;;4.60;100.00;96930.81;5027473;28;20037;-69
2024/03/28 02:22:48;;;;;;;1.27;0.40;;;;;;;4.60;100.00;96925.34;5043423;28;20040;-69
2024/03/28 02:25:13;;;;;;;1.83;0.40;;;;;;;4.64;100.00;96922.69;5040371;28;20029;-69
2024/03/28 02:27:40;;;;;;;2.22;0.45;;;;;;;4.66;100.00;96926.72;5047003;28;20045;-69
2024/03/28 02:30:09;;;;;;;1.85;0.40;;;;;;;4.68;100.00;96918.94;5024400;28;20036;-69
2024/03/28 02:32:35;;;;;;;1.13;0.40;;;;;;;4.65;100.00;96910.53;5043582;28;20096;-69
2024/03/28 02:35:03;;;;;;;3.00;0.43;;;;;;;4.65;100.00;96903.13;5034148;28;20477;-69
2024/03/28 02:37:29;;;;;;;3.72;0.50;;;;;;;4.67;100.00;96900.81;5039449;28;20040;-69
2024/03/28 02:39:55;;;;;;;2.05;0.50;;;;;;;4.67;100.00;96908.25;5026848;28;20039;-69
2024/03/28 02:42:21;;;;;;;1.50;0.40;;;;;;;4.65;100.00;96903.13;5031659;28;20044;-69
2024/03/28 02:44:46;;;;;;;1.85;0.40;;;;;;;4.65;100.00;96907.78;5039965;28;20029;-69
2024/03/28 02:47:12;;;;;;;1.02;0.43;;;;;;;4.58;100.00;96919.38;5025320;28;20063;-69
2024/03/28 02:49:37;;;;;;;1.83;0.30;;;;;;;4.58;100.00;96922.13;5059727;28;20451;-69
2024/03/28 02:52:03;;;;;;;1.60;0.47;;;;;;;4.58;100.00;96924.06;5059557;28;20040;-69
2024/03/28 02:54:28;;;;;;;0.22;0.22;;;;;;;4.53;100.00;96930.56;5059040;28;20040;-69
2024/03/28 02:56:54;;;;;;;1.83;0.40;;;;;;;4.50;100.00;96928.50;5043002;28;20041;-69
2024/03/28 02:59:19;;;;;;;1.15;0.30;;;;;;;4.47;100.00;96929.19;5031190;28;20037;-69
2024/03/28 03:01:45;;;;;;;0.45;0.30;;;;;;;4.44;100.00;96940.88;5059513;28;20481;-69
2024/03/28 03:04:10;;;;;;;0.52;0.30;;;;;;;4.39;100.00;96939.16;5038370;28;20119;-69
2024/03/28 03:06:36;;;;;;;0.55;0.30;;;;;;;4.39;100.00;96935.59;5026284;28;20028;-69
2024/03/28 03:09:01;;;;;;;1.65;0.30;;;;;;;4.37;100.00;96951.63;5043063;28;20052;-69
2024/03/28 03:11:27;;;;;;;2.20;0.60;;;;;;;4.36;100.00;96956.31;5010062;28;20040;-69
2024/03/28 03:13:52;;;;;;;1.40;0.50;;;;;;;4.32;100.00;96960.06;5059842;28;20115;-69
2024/03/28 03:16:18;;;;;;;1.92;0.60;;;;;;;4.33;100.00;96950.69;5043092;28;20040;-69
2024/03/28 03:18:43;;;;;;;2.60;0.50;;;;;;;4.30;100.00;96952.19;5042243;28;20527;-69
2024/03/28 03:21:10;;;;;;;0.70;0.60;;;;;;;4.32;100.00;96960.06;5030270;28;20036;-69
2024/03/28 03:23:45;;;;;;;3.55;0.70;;;;;;;4.30;100.00;96951.38;5051989;28;20040;-69
2024/03/28 03:26:20;;;;;;;1.30;0.50;;;;;;;4.26;100.00;96951.25;5021486;28;20032;-69
2024/03/28 03:34:36;;;;;;;2.20;1.13;;;;;;;4.23;100.00;96940.94;4968606;28;20586;-69
2024/03/28 03:37:02;;;;;;;1.83;1.13;;;;;;;4.21;100.00;96955.03;4962954;28;20082;-69
2024/03/28 03:39:28;;;;;;;2.88;1.15;;;;;;;4.19;100.00;96946.31;4987577;28;20064;-69
2024/03/28 03:41:55;;;;;;;3.30;1.48;;;;;;;4.15;100.00;96933.59;5036067;28;20036;-69
2024/03/28 03:44:20;;;;;;;2.75;1.33;;;;;;;4.13;100.00;96942.19;5027335;28;20044;-69
2024/03/28 03:46:46;;;;;;;4.88;1.80;;;;;;;4.07;100.00;96940.78;5015694;28;20033;-69
2024/03/28 03:49:11;;;;;;;2.67;1.65;;;;;;;4.08;100.00;96939.66;5042005;28;20527;-69
2024/03/28 03:51:36;;;;;;;2.47;1.80;;;;;;;4.02;100.00;96936.31;5035418;28;20037;-69
2024/03/28 03:54:02;;;;;;;4.97;1.80;;;;;;;4.00;100.00;96943.28;5041681;28;20036;-69
2024/03/28 03:56:27;;;;;;;4.80;1.55;;;;;;;4.00;100.00;96962.50;5051780;28;20112;-69
2024/03/28 03:58:53;;;;;;;4.57;1.90;;;;;;;3.95;100.00;96952.50;5025413;28;20378;-69
2024/03/28 04:01:18;;;;;;;3.50;1.40;;;;;;;3.93;100.00;96967.75;5013795;28;20060;-69
2024/03/28 04:03:45;;;;;;;4.03;1.58;;;;;;;3.92;100.00;96974.34;5022239;28;20056;-69
2024/03/28 04:06:10;;;;;;;3.60;1.60;;;;;;;3.88;100.00;96979.72;5021312;28;20029;-69
2024/03/28 04:08:36;;;;;;;2.95;1.10;;;;;;;3.83;100.00;96982.66;5021995;28;20044;-69
2024/03/28 04:11:01;;;;;;;2.55;1.10;;;;;;;3.81;100.00;96996.72;5022536;28;20051;-69
2024/03/28 04:13:27;;;;;;;4.30;1.00;;;;;;;3.77;100.00;96990.31;5021963;28;20040;-69
2024/03/28 04:15:52;;;;;;;5.28;1.25;;;;;;;3.77;100.00;96982.06;5038487;28;20041;-69
2024/03/28 04:18:18;;;;;;;2.30;0.90;;;;;;;3.81;100.00;96983.00;5008141;28;20080;-69
2024/03/28 04:20:43;;;;;;;3.08;1.15;;;;;;;3.73;100.00;96986.63;5021927;28;20121;-69
2024/03/28 04:23:08;;;;;;;3.92;0.95;;;;;;;3.73;100.00;96986.63;5005609;28;20045;-69
2024/03/28 04:25:34;;;;;;;5.70;0.90;;;;;;;3.73;100.00;96989.38;5021995;28;20036;-69
2024/03/28 04:27:59;;;;;;;5.03;0.70;;;;;;;3.68;100.00;96997.81;5025535;28;20041;-69
2024/03/28 04:30:29;;;;;;;2.53;0.88;;;;;;;3.69;100.00;96993.91;5018352;28;20541;-69
2024/03/28 04:32:54;;;;;;;5.47;0.73;;;;;;;3.64;100.00;96994.13;5018821;28;20091;-69
2024/03/28 04:35:20;;;;;;;6.70;1.67;;;;;;;3.64;100.00;96987.81;5004982;28;20049;-69
2024/03/28 04:37:46;;;;;;;6.28;1.27;;;;;;;3.65;100.00;96976.53;5017715;28;20040;-69
2024/03/28 04:40:12;;;;;;;6.18;2.20;;;;;;;3.64;100.00;96985.09;4989151;28;20115;-69
2024/03/28 04:42:37;;;;;;;5.10;2.40;;;;;;;3.60;100.00;96971.25;5021473;28;20047;-69
2024/03/28 04:45:03;;;;;;;3.95;1.63;;;;;;;3.54;100.00;96978.06;5021177;28;20570;-69
2024/03/28 04:47:29;;;;;;;3.47;2.10;;;;;;;3.53;100.00;96981.94;5004914;28;20033;-69
2024/03/28 04:49:54;;;;;;;2.33;2.13;;;;;;;3.55;100.00;96996.13;5029232;28;20044;-69
2024/03/28 04:52:20;;;;;;;5.07;2.95;;;;;;;3.53;100.00;97001.13;5021381;28;20044;-69
2024/03/28 04:54:45;;;;;;;6.25;2.20;;;;;;;3.51;100.00;97019.88;5020491;28;20033;-69
2024/03/28 04:57:11;;;;;;;3.08;2.10;;;;;;;3.46;100.00;97029.13;5005344;28;20648;-69
2024/03/28 04:59:36;;;;;;;2.60;2.15;;;;;;;3.45;100.00;97035.72;5002103;28;20045;-69
2024/03/28 05:02:02;;;;;;;2.80;1.85;;;;;;;3.43;100.00;97031.72;5032325;28;20113;-69
2024/03/28 05:04:28;;;;;;;3.20;1.75;;;;;;;3.43;100.00;97034.47;5041133;28;20040;-69
2024/03/28 05:06:53;;;;;;;2.40;1.60;;;;;;;3.42;100.00;97038.31;5041022;28;20036;-69
2024/03/28 05:09:20;;;;;;;3.95;1.75;;;;;;;3.44;100.00;97041.56;5024017;28;20101;-69
2024/03/28 05:11:45;;;;;;;2.85;1.70;;;;;;;3.42;100.00;97043.81;5044147;28;20028;-69
2024/03/28 05:14:11;;;;;;;5.50;1.88;;;;;;;3.41;100.00;97045.75;5024100;28;20067;-69
2024/03/28 05:16:38;;;;;;;5.00;1.80;;;;;;;3.44;100.00;97049.78;5061391;28;20032;-69
2024/03/28 05:19:04;;;;;;;4.22;1.52;;;;;;;3.45;100.00;97054.13;5013654;28;20054;-69
2024/03/28 05:21:29;;;;;;;4.63;1.52;;;;;;;3.44;100.00;97056.06;5045179;28;20028;-69
2024/03/28 05:23:55;;;;;;;4.47;1.48;;;;;;;3.44;100.00;97058.81;5040942;28;20060;-69
2024/03/28 05:26:20;;;;;;;5.57;1.60;;;;;;;3.39;100.00;97056.25;5045019;28;20496;-69
2024/03/28 05:28:46;;;;;;;4.97;1.63;;;;;;;3.44;100.00;97063.50;5042821;28;20033;-69
2024/03/28 05:31:16;;;;;;;6.78;1.38;;;;;;;3.45;100.00;97063.16;5045070;28;20111;-69
2024/03/28 05:33:42;;;;;;;4.32;1.40;;;;;;;3.39;100.00;97059.00;5030265;28;20040;-69
2024/03/28 05:36:07;;;;;;;8.63;1.10;;;;;;;3.48;100.00;97059.78;5044931;28;20033;-69
2024/03/28 05:38:33;;;;;;;3.05;0.93;;;;;;;3.48;100.00;97039.75;5040140;28;20527;-69
2024/03/28 05:40:58;;;;;;;5.30;1.10;;;;;;;3.51;100.00;97048.13;5011773;28;20043;-69
2024/03/28 05:43:24;;;;;;;10.25;1.08;;;;;;;3.56;100.00;97047.09;5045108;28;20041;-69
2024/03/28 05:45:49;;;;;;;3.63;1.00;;;;;;;3.61;100.00;97035.94;5044733;28;20040;-69
2024/03/28 05:48:16;;;;;;;7.53;1.75;;;;;;;3.66;100.00;97029.47;5011391;28;20048;-69
2024/03/28 05:50:41;;;;;;;3.08;0.98;;;;;;;3.66;100.00;97041.25;5028465;28;20044;-69
2024/03/28 05:53:07;;;;;;;3.65;1.00;;;;;;;3.72;100.00;97052.81;5054519;28;20068;-69
2024/03/28 05:55:33;;;;;;;6.50;1.20;;;;;;;3.73;100.00;97071.72;5040894;28;20037;-69
2024/03/28 05:57:59;;;;;;;4.72;0.98;;;;;;;3.74;100.00;97056.84;5043264;28;20370;-69
2024/03/28 06:00:24;;;;;;;1.58;1.05;;;;;;;3.75;100.00;97058.44;5044059;28;20041;-69
2024/03/28 06:02:49;;;;;;;5.13;1.35;;;;;;;3.76;100.00;97057.31;5057613;28;20060;-69
2024/03/28 06:05:15;;;;;;;5.15;0.82;;;;;;;3.81;100.00;97068.09;5048351;28;20032;-69
2024/03/28 06:07:40;;;;;;;3.55;1.30;;;;;;;3.78;100.00;97068.75;5027067;28;20571;-69
2024/03/28 06:10:06;;;;;;;4.82;1.42;;;;;;;3.83;100.00;97070.50;5044031;28;20032;-69
2024/03/28 06:12:31;;;;;;;2.75;1.10;;;;;;;3.86;100.00;97074.53;5025075;28;20048;-69
2024/03/28 06:14:57;;;;;;;5.93;1.08;;;;;;;3.89;100.00;97062.88;5027936;28;20040;-69
2024/03/28 06:17:22;;;;;;;4.15;0.98;;;;;;;3.88;100.00;97072.25;5039403;28;20040;-69
2024/03/28 06:19:48;;;;;;;3.35;1.27;;;;;;;3.94;100.00;97065.44;5044016;28;20036;-69
2024/03/28 06:22:13;;;;;;;6.82;1.10;;;;;;;3.92;100.00;97075.94;5043135;28;20037;-69
2024/03/28 06:24:39;;;;;;;4.88;1.08;;;;;;;3.93;100.00;97074.81;5035466;28;20036;-69
2024/03/28 06:27:05;;;;;;;5.03;1.10;;;;;;;3.94;100.00;97087.41;5060023;28;20044;-69
2024/03/28 06:29:39;;;;;;;3.67;1.00;;;;;;;3.93;100.00;97092.09;5056925;28;20064;-69
2024/03/28 06:32:13;;;;;;;5.10;1.30;;;;;;;3.96;100.00;97093.38;5060510;28;20046;-69
2024/03/28 06:34:39;;;;;;;4.25;1.27;;;;;;;4.02;100.00;97117.53;5034189;28;20030;-69
2024/03/28 06:37:05;;;;;;;6.32;1.38;;;;;;;4.03;100.00;97110.09;5041200;28;20480;-69
2024/03/28 06:39:31;;;;;;;4.30;1.20;;;;;;;4.08;100.00;97125.56;5045783;28;20044;-69
2024/03/28 06:41:56;;;;;;;5.80;1.40;;;;;;;4.10;100.00;97113.13;5043585;28;20037;-69
2024/03/28 06:44:22;;;;;;;9.05;1.70;;;;;;;4.12;100.00;97099.84;5060275;28;20551;-69
2024/03/28 06:46:47;;;;;;;6.40;1.17;;;;;;;4.14;100.00;97083.03;5026922;28;20040;-69
2024/03/28 06:49:13;;;;;;;6.95;1.35;;;;;;;4.18;100.00;97095.78;5043566;28;20127;-69
2024/03/28 06:51:39;;;;;;;6.00;1.25;;;;;;;4.22;100.00;97093.94;5027097;28;20044;-69
2024/03/28 06:54:04;;;;;;;6.18;1.15;;;;;;;4.26;100.00;97091.31;5043243;28;20042;-69
2024/03/28 06:56:30;;;;;;;5.20;1.40;;;;;;;4.28;100.00;97086.31;5043288;28;20051;-69
2024/03/28 06:58:55;;;;;;;8.40;1.40;;;;;;;4.33;100.00;97099.84;5043353;28;20036;-69
2024/03/28 07:01:21;;;;;;;6.90;1.30;;;;;;;4.39;100.00;97089.44;5029813;28;20059;-69
2024/03/28 07:03:46;;;;;;;8.63;3.45;;;;;;;4.46;100.00;97103.47;5026784;28;20040;-65
2024/03/28 07:06:12;;;;;;;7.25;2.25;;;;;;;4.56;100.00;97097.53;5042902;28;20484;-68
2024/03/28 07:08:37;;;;;;;7.43;2.08;;;;;;;4.77;100.00;97102.19;5042678;28;20043;-68
2024/03/28 07:11:03;;;;;;;11.00;1.92;;;;;;;4.91;100.00;97098.00;5025776;28;20044;-69
2024/03/28 07:13:31;;;;;;;9.00;1.90;;;;;;;5.09;100.00;97104.09;5059645;28;20489;-68
2024/03/28 07:15:57;;;;;;;4.95;0.95;;;;;;;5.26;100.00;97102.28;5026195;28;20076;-68
2024/03/28 07:18:22;;;;;;;9.50;1.50;;;;;;;5.41;100.00;97098.88;5023634;28;20102;-68
2024/03/28 07:20:47;;;;;;;4.70;1.17;;;;;;;5.56;100.00;97094.63;5031086;28;20028;-69
2024/03/28 07:23:13;;;;;;;11.25;1.77;;;;;;;5.69;100.00;97109.19;5042837;28;20044;-69
2024/03/28 07:25:39;;;;;;;9.45;1.20;;;;;;;5.77;100.00;97100.03;5056036;28;20033;-69
2024/03/28 07:28:04;;;;;;;5.22;1.27;;;;;;;5.82;100.00;97105.25;5052286;28;20040;-69
2024/03/28 07:30:30;;;;;;;8.93;1.40;;;;;;;5.91;100.00;97103.22;5056967;28;20404;-70
2024/03/28 07:32:55;;;;;;;10.38;1.63;;;;;;;5.95;100.00;97092.31;5042942;28;20047;-69
2024/03/28 07:35:21;;;;;;;4.13;1.48;;;;;;;5.98;100.00;97086.91;5023420;28;20044;-69
2024/03/28 07:37:47;;;;;;;8.73;1.25;;;;;;;6.02;100.00;97062.25;5038269;28;20032;-69
2024/03/28 07:40:12;;;;;;;9.43;1.27;;;;;;;6.03;100.00;97053.63;5057990;28;20538;-69
2024/03/28 07:42:38;;;;;;;11.90;1.55;;;;;;;6.03;100.00;97064.66;5047034;28;20091;-69
2024/03/28 07:45:03;;;;;;;10.25;1.20;;;;;;;6.03;100.00;97061.88;5040146;28;20033;-69
2024/03/28 07:47:29;;;;;;;6.70;1.20;;;;;;;6.06;100.00;97078.88;5027241;28;20071;-69
2024/03/28 07:49:55;;;;;;;6.55;1.30;;;;;;;6.07;100.00;97080.47;5052884;28;20029;-69
2024/03/28 07:52:20;;;;;;;7.65;1.30;;;;;;;6.06;100.00;97092.66;5058863;28;20090;-68
2024/03/28 07:54:46;;;;;;;6.65;1.10;;;;;;;6.08;100.00;97088.41;5037907;28;20036;-69
2024/03/28 07:57:12;;;;;;;9.05;1.30;;;;;;;6.12;100.00;97078.28;5025709;28;20444;-69
2024/03/28 07:59:37;;;;;;;10.95;1.80;;;;;;;6.16;100.00;97092.19;5029744;28;20496;-69
2024/03/28 08:02:03;;;;;;;8.18;1.20;;;;;;;6.23;100.00;97090.41;5014842;28;20057;-69
2024/03/28 08:04:28;;;;;;;11.05;1.50;;;;;;;6.33;100.00;97102.91;5005915;28;20116;-69
2024/03/28 08:06:53;;;;;;;11.73;1.17;;;;;;;6.42;100.00;97103.56;5022205;28;20369;-69
2024/03/28 08:09:19;;;;;;;9.63;1.70;;;;;;;6.55;100.00;97092.53;5020930;28;20044;-69
2024/03/28 08:11:44;;;;;;;9.60;1.13;;;;;;;6.66;100.00;97124.75;5011937;28;20051;-69
2024/03/28 08:14:11;;;;;;;10.68;1.30;;;;;;;6.81;100.00;97098.34;5005961;28;20044;-69
2024/03/28 08:16:38;;;;;;;6.45;1.10;;;;;;;6.90;100.00;97103.72;5025305;28;20055;-69
2024/03/28 08:19:04;;;;;;;11.25;1.63;;;;;;;7.00;100.00;97107.94;5020927;28;20129;-69
2024/03/28 08:21:29;;;;;;;8.90;1.52;;;;;;;7.10;100.00;97104.63;5005755;28;20040;-69
2024/03/28 08:23:55;;;;;;;7.45;1.15;;;;;;;7.17;100.00;97102.06;5038013;28;20559;-69
2024/03/28 08:26:20;;;;;;;8.80;1.33;;;;;;;7.31;100.00;97102.44;5022077;28;20044;-69
2024/03/28 08:28:46;;;;;;;10.75;1.52;;;;;;;7.43;100.00;97086.94;5017377;28;20070;-69
2024/03/28 08:31:12;;;;;;;9.80;1.30;;;;;;;7.54;100.00;97108.13;5017382;28;20036;-69
2024/03/28 08:33:38;;;;;;;11.15;1.67;;;;;;;7.66;100.00;97096.19;5023238;28;20028;-69
2024/03/28 08:36:05;;;;;;;9.38;1.65;;;;;;;7.79;100.00;97097.69;5038814;28;20065;-69
2024/03/28 08:38:31;;;;;;;13.38;2.17;;;;;;;7.94;100.00;97092.47;5013035;28;20108;-69
2024/03/28 08:40:57;;;;;;;13.60;2.05;;;;;;;8.09;100.00;97096.38;4989383;28;20460;-68
2024/03/28 08:43:22;;;;;;;10.30;1.90;;;;;;;8.25;100.00;97103.47;5021886;28;20052;-68
2024/03/28 08:45:48;;;;;;;11.65;2.13;;;;;;;8.39;100.00;97103.00;5021730;28;20029;-69
2024/03/28 08:48:13;;;;;;;13.40;2.10;;;;;;;8.54;100.00;97092.25;5015579;28;20046;-69
2024/03/28 08:50:39;;;;;;;7.93;1.63;;;;;;;8.65;100.00;97109.84;5038228;28;20033;-69
2024/03/28 08:53:05;;;;;;;18.08;1.60;;;;;;;8.77;100.00;97103.38;5032390;28;20194;-69
2024/03/28 08:55:30;;;;;;;12.60;1.98;;;;;;;8.89;100.00;97097.69;5000285;28;20041;-69
2024/03/28 08:57:56;;;;;;;15.85;2.05;;;;;;;8.99;100.00;97105.38;5058178;28;20046;-69
2024/03/28 09:00:25;;;;;;;15.93;2.35;;;;;;;9.09;100.00;97113.09;5012248;28;20034;-69
2024/03/28 09:02:50;;;;;;;13.48;2.13;;;;;;;9.23;100.00;97126.41;5052056;28;20045;-69
2024/03/28 09:05:16;;;;;;;15.10;2.40;;;;;;;9.33;100.00;97117.50;5035912;28;22573;-69
2024/03/28 09:07:41;;;;;;;16.20;2.05;;;;;;;9.47;100.00;97107.81;5014882;28;20044;-69
2024/03/28 09:10:07;;;;;;;12.98;1.80;;;;;;;9.59;100.00;97108.44;5035694;28;20045;-69
2024/03/28 09:12:36;;;;;;;16.67;1.92;;;;;;;9.79;100.00;97111.91;5052373;28;20040;-69
2024/03/28 09:15:02;;;;;;;8.52;1.83;;;;;;;9.93;100.00;97113.31;5015034;28;20033;-69
2024/03/28 09:17:28;;;;;;;19.90;2.95;;;;;;;10.10;100.00;97112.00;5032791;28;20063;-69
2024/03/28 09:19:54;;;;;;;16.40;2.38;;;;;;;10.26;100.00;97107.09;5045552;28;20447;-69
2024/03/28 09:22:23;;;;;;;17.65;2.40;;;;;;;10.39;100.00;97116.81;5000186;28;20040;-69
2024/03/28 09:24:48;;;;;;;16.05;2.35;;;;;;;10.55;100.00;97116.59;5019275;28;20044;-69
2024/03/28 09:27:14;;;;;;;16.95;2.28;;;;;;;10.69;100.00;97116.00;5029088;28;20041;-69
2024/03/28 09:29:40;;;;;;;21.08;2.67;;;;;;;10.79;100.00;97120.09;5037392;28;20037;-69
2024/03/28 09:32:07;;;;;;;21.48;2.55;;;;;;;10.94;100.00;97105.19;5057666;28;20090;-69
2024/03/28 09:34:33;;;;;;;19.40;2.83;;;;;;;11.10;100.00;97110.53;5020228;28;20098;-69
2024/03/28 09:36:59;;;;;;;14.15;2.58;;;;;;;11.23;100.00;97113.81;5012570;28;20033;-69
2024/03/28 09:39:25;;;;;;;21.55;2.90;;;;;;;11.38;100.00;97110.03;5056912;28;20516;-69
2024/03/28 09:41:51;;;;;;;18.92;2.97;;;;;;;11.53;100.00;97122.06;5027037;28;20548;-69
2024/03/28 09:44:20;;;;;;;22.90;2.83;;;;;;;11.64;100.00;97125.75;5024308;28;20036;-69
2024/03/28 09:46:49;;;;;;;16.10;3.15;;;;;;;11.70;100.00;97138.13;5037486;28;20048;-69
2024/03/28 09:49:16;;;;;;;24.98;3.90;;;;;;;11.67;100.00;97127.75;5020587;28;20373;-69
2024/03/28 09:51:41;;;;;;;21.90;3.13;;;;;;;11.65;100.00;97135.69;5055219;28;20036;-69
2024/03/28 09:54:07;;;;;;;27.35;3.55;;;;;;;11.67;100.00;97141.66;5037022;28;22448;-69
2024/03/28 09:56:33;;;;;;;22.23;3.58;;;;;;;11.64;100.00;97128.50;5037964;28;20045;-69
2024/03/28 09:58:59;;;;;;;22.73;3.83;;;;;;;11.63;100.00;97130.50;5053048;28;20123;-69
2024/03/28 10:01:25;;;;;;;25.70;3.33;;;;;;;11.61;100.00;97123.72;5038665;28;20049;-69
2024/03/28 10:04:18;;;;;;;23.77;3.60;;;;;;;11.65;100.00;97116.25;5006744;28;20463;-69
2024/03/28 10:06:48;;;;;;;21.00;3.17;;;;;;;11.53;100.00;97117.31;5070100;28;20033;-69
2024/03/28 10:09:14;;;;;;;23.92;2.85;;;;;;;11.51;100.00;97171.69;5055785;28;20480;-69
2024/03/28 10:11:41;;;;;;;21.15;2.90;;;;;;;11.50;100.00;97168.09;5042419;28;20040;-69
2024/03/28 10:14:18;;;;;;;21.67;3.35;;;;;;;11.44;100.00;97179.94;5020151;28;20036;-69
2024/03/28 10:16:48;;;;;;;20.48;3.08;;;;;;;11.42;100.00;97180.31;5057016;28;20148;-69
2024/03/28 10:19:17;;;;;;;18.70;2.90;;;;;;;11.39;100.00;97192.19;5012739;28;20123;-69
2024/03/28 10:21:44;;;;;;;20.00;2.95;;;;;;;11.39;100.00;97183.84;5039550;28;20123;-69
2024/03/28 10:24:18;;;;;;;19.42;3.35;;;;;;;11.40;100.00;97186.25;5041540;28;20036;-69
2024/03/28 10:26:44;;;;;;;17.02;2.85;;;;;;;11.48;100.00;97183.53;5044620;28;20041;-69
2024/03/28 10:29:13;;;;;;;23.95;2.97;;;;;;;11.56;100.00;97185.22;5039839;28;20507;-69
2024/03/28 10:31:39;;;;;;;17.63;2.85;;;;;;;11.63;100.00;97176.97;5008131;28;20047;-69
2024/03/28 10:34:12;;;;;;;22.73;2.95;;;;;;;11.69;100.00;97174.63;5025128;28;20044;-69
2024/03/28 10:36:38;;;;;;;18.95;3.20;;;;;;;11.78;100.00;97175.94;5064719;28;20040;-69
2024/03/28 10:39:05;;;;;;;28.48;4.28;;;;;;;11.89;100.00;97194.69;5003776;28;20036;-69
2024/03/28 10:41:31;;;;;;;22.95;3.72;;;;;;;12.06;100.00;97194.88;5008689;28;20044;-69
2024/03/28 10:44:00;;;;;;;24.42;3.20;;;;;;;12.24;100.00;97197.00;5055024;28;20584;-69
2024/03/28 10:46:26;;;;;;;19.88;3.40;;;;;;;12.36;100.00;97191.13;5024456;28;20037;-70
2024/03/28 10:48:53;;;;;;;20.48;2.97;;;;;;;12.48;100.00;97212.25;5022992;28;20086;-69
2024/03/28 10:51:28;;;;;;;21.75;3.22;;;;;;;12.55;100.00;97214.31;5038316;28;20044;-69
2024/03/28 10:54:03;;;;;;;19.00;3.50;;;;;;;12.56;100.00;97200.00;5042652;28;20115;-69
2024/03/28 10:56:31;;;;;;;22.90;3.20;;;;;;;12.62;100.00;97208.78;5073642;28;20056;-69
2024/03/28 10:58:59;;;;;;;27.30;4.38;;;;;;;12.67;100.00;97208.41;5038199;28;20568;-69
2024/03/28 11:01:25;;;;;;;18.38;3.38;;;;;;;12.72;100.00;97219.19;5035946;28;20122;-70
2024/03/28 11:03:51;;;;;;;21.08;3.85;;;;;;;12.78;100.00;97212.06;5062585;28;20040;-69
2024/03/28 11:06:16;;;;;;;21.20;3.40;;;;;;;12.80;100.00;97195.78;5032735;28;20041;-69
2024/03/28 11:08:42;;;;;;;18.80;3.00;;;;;;;12.90;100.00;97194.25;5034545;28;20055;-70
2024/03/28 11:11:08;;;;;;;25.52;3.83;;;;;;;12.96;100.00;97214.97;5018706;28;20041;-69
2024/03/28 11:13:34;;;;;;;23.77;3.67;;;;;;;13.06;100.00;97216.19;5025159;28;20049;-69
2024/03/28 11:16:03;;;;;;;21.48;3.22;;;;;;;13.12;100.00;97192.34;5023875;28;20036;-70
2024/03/28 11:18:29;;;;;;;20.05;3.22;;;;;;;13.22;100.00;97191.59;5009373;28;20558;-69
2024/03/28 11:20:55;;;;;;;27.05;3.58;;;;;;;13.27;100.00;97215.53;5037161;28;20040;-69
2024/03/28 11:23:20;;;;;;;21.90;3.63;;;;;;;13.34;100.00;97229.47;5018432;28;20047;-69
2024/03/28 11:25:47;;;;;;;17.33;2.65;;;;;;;13.37;100.00;97234.25;5053464;28;20094;-69
2024/03/28 11:28:13;;;;;;;26.90;4.22;;;;;;;13.37;100.00;97251.00;5050793;28;20036;-70
2024/03/28 11:30:40;;;;;;;22.40;3.28;;;;;;;13.35;100.00;97239.47;5024284;28;20033;-70